Sunday, November 19, 2017, 8:45 PM EST
Back to Local

KBLM, Belmar-farmingdale

Location: Farmingdale, NJ, United States Lat: 40.183
Local Time: 8:45 PM EST ( 1:45 GMT) Lon: -74.133
Time Zone: US/Eastern Elev: 157 ft

Show me the last for .
Show Decoded

2017-11-19 19:56 METAR KBLM 200056Z AUTO 26012G16KT 10SM OVC075 07/M03 A2975 RMK AO2 SLP080
                 T00721028 =
2017-11-19 18:56 METAR KBLM 192356Z AUTO 27017G23KT 10SM SCT050 OVC060 08/M02 A2973 RMK AO2
                 SLP071 6//// T00781017 10111 20078 51038 =
2017-11-19 17:56 METAR KBLM 192256Z AUTO 27007KT 10SM OVC060 08/M02 A2969 RMK AO2 SLP060
                 T00831022 =
2017-11-19 16:56 METAR KBLM 192156Z AUTO 28014KT 10SM CLR 09/M03 A2965 RMK AO2 SLP046 T00891028 =
2017-11-19 15:56 METAR KBLM 192056Z AUTO 29016G33KT 10SM CLR 10/M03 A2961 RMK AO2 PK WND
                 28033/2048 SLP032 6//// T01001028 53030 =
2017-11-19 14:56 METAR KBLM 191956Z AUTO 28020G27KT 10SM FEW055 11/M02 A2956 RMK AO2 PK WND
                 30031/1942 SLP016 T01061017 =
2017-11-19 13:56 METAR KBLM 191856Z AUTO 28021G30KT 10SM SCT050 11/M01 A2954 RMK AO2 PK WND
                 28040/1804 SLP008 T01111011 =
2017-11-19 12:56 METAR KBLM 191756Z AUTO 28022G33KT 10SM BKN050 11/00 A2952 RMK AO2 PK WND
                 25034/1722 SLP002 60003 T01110000 10150 20100 51027 =
2017-11-19 11:56 METAR KBLM 191656Z AUTO 29019G26KT 10SM BKN046 11/00 A2952 RMK AO2 PK WND
                 27037/1559 SLP000 T01110000 =
2017-11-19 10:56 METAR KBLM 191556Z AUTO 28022G38KT 10SM OVC042 11/01 A2948 RMK AO2 PK WND
                 27038/1552 SLP987 T01060011 =
2017-11-19 09:56 METAR KBLM 191456Z AUTO 27021G34KT 10SM SCT038 10/02 A2944 RMK AO2 PK WND
                 28036/1444 SLP975 60003 T01000022 51060 =
2017-11-19 08:56 METAR KBLM 191356Z AUTO 27017G30KT 10SM SCT026 BKN037 11/03 A2940 RMK AO2 PK WND
                 25035/1340 SLP961 T01060033 =
2017-11-19 08:29 METAR KBLM 191329Z AUTO 27020G33KT 10SM BKN024 BKN039 OVC080 11/04 A2938 RMK AO2
                 PK WND 28033/1327 =
2017-11-19 08:15 METAR KBLM 191315Z AUTO 26024G33KT 10SM FEW018 SCT028 OVC080 12/06 A2936 RMK AO2
                 PK WND 27033/1314 PRESRR =
2017-11-19 07:56 METAR KBLM 191256Z AUTO 25018G27KT 10SM BKN018 BKN026 OVC033 12/09 A2932 RMK AO2
                 RAE54 SLP935 P0003 T01220089 =
2017-11-19 06:56 METAR KBLM 191156Z AUTO 22016G24KT 9SM -RA OVC016 15/13 A2926 RMK AO2 PK WND
                 20026/1144 SLP914 6//// 7//// T01500133 10150 20144 58016 =
2017-11-19 05:56 METAR KBLM 191056Z AUTO 21013G22KT 10SM -RA OVC012 15/13 A2928 RMK AO2 SLP919
                 P0005 T01500133 =
2017-11-19 05:06 METAR KBLM 191006Z AUTO 21012G18KT 10SM RA BKN012 BKN017 OVC060 14/13 A2930 RMK
                 AO2 LTG DSNT SE P0002 =
2017-11-19 04:56 METAR KBLM 190956Z AUTO 21013G18KT 9SM RA SCT012 BKN018 OVC060 14/13 A2931 RMK
                 AO2 LTG DSNT SE AND S SLP929 P0013 T01440133 =
2017-11-19 04:26 METAR KBLM 190926Z AUTO 20015G22KT 9SM RA SCT010 BKN015 OVC055 14/13 A2930 RMK
                 AO2 P0006 =
2017-11-19 04:06 METAR KBLM 190906Z AUTO 20013G20KT 10SM RA BKN014 BKN047 OVC055 14/13 A2931 RMK
                 AO2 P0002 =
2017-11-19 03:56 METAR KBLM 190856Z AUTO 20011G18KT 10SM -RA FEW011 BKN016 OVC047 14/13 A2932 RMK
                 AO2 SLP931 P0005 60008 T01440133 58027 =
2017-11-19 03:43 METAR KBLM 190843Z AUTO 20013G20KT 10SM -RA BKN016 BKN026 OVC095 14/13 A2933 RMK
                 AO2 P0004 =
2017-11-19 03:30 METAR KBLM 190830Z AUTO 20011G20KT 9SM RA SCT024 BKN048 OVC095 14/13 RMK AO2
                 P0003 $ =
2017-11-19 02:56 METAR KBLM 190756Z AUTO 21012G17KT 9SM RA BKN026 OVC049 14/13 A2935 RMK AO2
                 SLP943 P0003 T01440128 =
2017-11-19 01:56 METAR KBLM 190656Z AUTO 18007KT 10SM -RA SCT034 14/11 A2937 RMK AO2 RAB56 SLP949
                 P0000 T01440111 =
2017-11-19 00:56 METAR KBLM 190556Z AUTO 20009G24KT 10SM CLR 16/11 A2939 RMK AO2 RAB15E25 SLP958
                 P0000 6//// T01560106 10156 20089 56039 =
2017-11-18 23:56 METAR KBLM 190456Z AUTO 20013G19KT 10SM CLR 15/11 A2943 RMK AO2 SLP969 T01500106
                 401501033 =
2017-11-18 22:56 METAR KBLM 190356Z AUTO 19011G17KT 10SM CLR 14/11 A2945 RMK AO2 SLP978 T01390106
                 TSNO =
2017-11-18 21:56 METAR KBLM 190256Z AUTO 19010KT 10SM CLR 13/10 A2951 RMK AO2 SLP999 60002
                 T01280100 56044 =
2017-11-18 20:56 METAR KBLM 190156Z AUTO 17004KT 10SM BKN120 11/08 A2955 RMK AO2 RAE18B45E56
                 SLP011 P0000 T01060083 =

Support USWX by starting your Amazon purchase here.